This is the latest recevied weather packets stored in our database for station/object DG2HSI-10. If no packets are shown the sender has not sent any weather packets the latest 10 day(s).
| Time | Temp. | Humidity | Pressure | Rain* | Wind** | Luminosity | Snow |
|---|---|---|---|---|---|---|---|
| 1777664147 | 17.78° C | 42% | 1026.2 hPa | - | - | - | - |
| 1777662947 | 18.33° C | 42% | 1026.1 hPa | - | - | - | - |
| 1777661746 | 18.89° C | 41% | 1026.1 hPa | - | - | - | - |
| 1777660546 | 20° C | 40% | 1026.1 hPa | - | - | - | - |
| 1777659346 | 21.11° C | 38% | 1025.9 hPa | - | - | - | - |
| 1777658146 | 21.67° C | 35% | 1025.8 hPa | - | - | - | - |
| 1777656946 | 22.22° C | 35% | 1025.9 hPa | - | - | - | - |
| 1777655746 | 22.78° C | 34% | 1026 hPa | - | - | - | - |
| 1777654545 | 23.89° C | 32% | 1026.2 hPa | - | - | - | - |
| 1777653345 | 25° C | 31% | 1026.3 hPa | - | - | - | - |
| 1777652145 | 27.22° C | 28% | 1026.4 hPa | - | - | - | - |
| 1777650945 | 28.89° C | 27% | 1026.5 hPa | - | - | - | - |
| 1777649745 | 30.56° C | 25% | 1026.6 hPa | - | - | - | - |
| 1777648545 | 30.56° C | 25% | 1026.9 hPa | - | - | - | - |
| 1777647344 | 33.89° C | 22% | 1027.1 hPa | - | - | - | - |
| 1777646144 | 40° C | 19% | 1027.3 hPa | - | - | - | - |
| 1777644944 | 45° C | 17% | 1027.4 hPa | - | - | - | - |
| 1777643744 | 46.67° C | 16% | 1027.5 hPa | - | - | - | - |
| 1777642544 | 47.22° C | 17% | 1027.9 hPa | - | - | - | - |
| 1777641344 | 46.67° C | 17% | 1027.9 hPa | - | - | - | - |
| 1777640143 | 47.22° C | 17% | 1028.3 hPa | - | - | - | - |
| 1777638943 | 45° C | 18% | 1028.5 hPa | - | - | - | - |
| 1777637743 | 44.44° C | 18% | 1028.8 hPa | - | - | - | - |
| 1777636543 | 41.67° C | 20% | 1028.9 hPa | - | - | - | - |
| 1777635343 | 40° C | 21% | 1029.1 hPa | - | - | - | - |
* Rain since midnight (hover to see other rain measurements)
** Current wind speed in m/s (hover to see current wind gust speed)